Darstellungsparameter: Aktuell verwendete Einstellungen:
Skalierung der Graphiken ... ?
xyx+y,   Skalierungsfaktor:      Skalierung: Modus: x, Faktor: 1
Darstellungszeitraum ... ?
Vom - - bis: - -   Zeitraum: 10.05.2021 - 10.05.2021
Min/Max/Avg-Anzeige ... ?
Zeige MMA aktuell
Zeige MMA Monat
Zeige MMA alles
Zeige --A aktuell
Zeige --A Monat
Zeige --A alles
Keine MMA-Anzeige
MMA:
Minimum Maximum Average (ber die Originaldaten)
MMA-Basis: 10.05.2021 - 10.05.2021
Quicknavigation für Darstellung... ?
Tage:      1T, 2T, 3T, 5T -1T -2T -3T -5T +1T +2T +3T +5T
Wochen: 1W, 2W, 3W -1W -2W -3W +1W +2W +3W
Monate: 1M, 3M, 6M -1M -3M -6M +1M +3M +6M
Jahre:    1J, 3J, 5J, 10J -1J -3J -5J -10J +1J +3J +5J +10J
Nutze für die Darstellung ... ?
Originaldaten oder Mittelwerte auf ...
Stundenbasis Tagesbasis Wochenbasis
Monatsbasis Jahresbasis      Datenbasis: Original-Daten
Darstellen als:
Statistik (Auto) Statistik J:M      Darstellung:

Der gewünschte Datumsbereich war nicht gültig/verfügbar und wurde korrigiert....
Das angegebene Enddatum (09.08.2030 23:59:59) liegt in der Zukunft.
Das angegebene Startdatum (09.02.2030 00:00:00) liegt in der Zukunft.


Zur Graphik,    zurück zur Übersicht aller Sensoren.
 
Tabellarische Datenbersicht: ?
 
Sensor: Nr:Datum:Temp:Abs-Feuchte:Windchill:Wind:
Aussen-T/F 1 10-05-2021 02:00:00 17.4 C 10.23 g/m*3 17.4 C 1.6 km/h
2 10-05-2021 02:05:00 17.4 C 10.52 g/m*3 17.4 C 1.6 km/h
3 10-05-2021 02:10:00 17.4 C 10.52 g/m*3 17.4 C 0 km/h
4 10-05-2021 02:15:00 17.4 C 10.52 g/m*3 17.4 C 3.2 km/h
5 10-05-2021 02:20:00 17.4 C 10.82 g/m*3 17.4 C 3.2 km/h
6 10-05-2021 02:25:00 17.4 C 10.97 g/m*3 17.4 C 3.2 km/h
7 10-05-2021 02:30:00 17.4 C 11.12 g/m*3 17.4 C 1.6 km/h
8 10-05-2021 02:35:00 17.3 C 10.9 g/m*3 17.3 C 1.6 km/h
9 10-05-2021 02:40:00 17.2 C 10.69 g/m*3 17.2 C 3.2 km/h
10 10-05-2021 02:45:00 17.1 C 10.92 g/m*3 17.1 C 0 km/h
11 10-05-2021 02:50:00 17.1 C 11.06 g/m*3 17.1 C 1.6 km/h
12 10-05-2021 02:55:00 17 C 10.85 g/m*3 17 C 0 km/h
13 10-05-2021 03:00:00 16.9 C 10.93 g/m*3 16.9 C 0 km/h
14 10-05-2021 03:05:00 16.8 C 10.58 g/m*3 16.8 C 0 km/h
15 10-05-2021 03:10:00 16.7 C 10.66 g/m*3 16.7 C 0 km/h
16 10-05-2021 03:15:00 16.8 C 11.01 g/m*3 16.8 C 0 km/h
17 10-05-2021 03:20:00 16.7 C 10.94 g/m*3 16.7 C 0 km/h
18 10-05-2021 03:25:00 16.6 C 10.74 g/m*3 16.6 C 0 km/h
19 10-05-2021 03:30:00 16.5 C 10.67 g/m*3 16.5 C 0 km/h
20 10-05-2021 03:35:00 16.4 C 10.61 g/m*3 16.4 C 0 km/h
21 10-05-2021 03:40:00 16.4 C 10.61 g/m*3 16.4 C 0 km/h
22 10-05-2021 03:45:00 16.4 C 10.75 g/m*3 16.4 C 0 km/h
23 10-05-2021 03:50:00 16.3 C 10.54 g/m*3 16.3 C 9.7 km/h
24 10-05-2021 03:55:00 16.4 C 10.47 g/m*3 16.4 C 4.8 km/h
25 10-05-2021 04:00:00 16.6 C 10.59 g/m*3 16.6 C 8.1 km/h
Sensor: Nr:Datum:Temp:Abs-Feuchte:Windchill:Wind:
Aussen-T/F 26 10-05-2021 04:05:00 16.6 C 10.45 g/m*3 16.6 C 8.1 km/h
27 10-05-2021 04:10:00 16.7 C 10.52 g/m*3 16.7 C 4.8 km/h
28 10-05-2021 04:15:00 16.8 C 10.58 g/m*3 16.8 C 3.2 km/h
29 10-05-2021 04:20:00 16.8 C 10.58 g/m*3 16.8 C 3.2 km/h
30 10-05-2021 04:25:00 16.8 C 10.58 g/m*3 16.8 C 1.6 km/h
31 10-05-2021 04:30:00 16.7 C 10.66 g/m*3 16.7 C 0 km/h
32 10-05-2021 04:35:00 16.6 C 10.59 g/m*3 16.6 C 1.6 km/h
33 10-05-2021 04:40:00 16.5 C 10.53 g/m*3 16.5 C 0 km/h
34 10-05-2021 04:45:00 16.4 C 10.61 g/m*3 16.4 C 0 km/h
35 10-05-2021 04:50:00 16.3 C 10.68 g/m*3 16.3 C 0 km/h
36 10-05-2021 04:55:00 16.2 C 10.76 g/m*3 16.2 C 0 km/h
37 10-05-2021 05:00:00 16.1 C 10.69 g/m*3 16.1 C 0 km/h
38 10-05-2021 05:05:00 15.9 C 10.56 g/m*3 15.9 C 0 km/h
39 10-05-2021 05:10:00 15.7 C 10.44 g/m*3 15.7 C 0 km/h
40 10-05-2021 05:15:00 15.5 C 10.31 g/m*3 15.5 C 0 km/h
41 10-05-2021 05:20:00 15.3 C 10.19 g/m*3 15.3 C 0 km/h
42 10-05-2021 05:25:00 15.3 C 10.45 g/m*3 15.3 C 0 km/h
43 10-05-2021 05:30:00 15.2 C 10.38 g/m*3 15.2 C 0 km/h
44 10-05-2021 05:35:00 15.2 C 10.38 g/m*3 15.2 C 0 km/h
45 10-05-2021 05:40:00 15.2 C 10.38 g/m*3 15.2 C 0 km/h
46 10-05-2021 05:45:00 15.3 C 10.45 g/m*3 15.3 C 0 km/h
47 10-05-2021 05:50:00 15.3 C 10.45 g/m*3 15.3 C 0 km/h
48 10-05-2021 05:55:00 15.3 C 10.45 g/m*3 15.3 C 0 km/h
49 10-05-2021 06:00:00 15.4 C 10.64 g/m*3 15.4 C 0 km/h
50 10-05-2021 06:05:00 15.4 C 10.77 g/m*3 15.4 C 0 km/h
Sensor: Nr:Datum:Temp:Abs-Feuchte:Windchill:Wind:
Aussen-T/F 51 10-05-2021 06:10:00 15.4 C 10.77 g/m*3 15.4 C 0 km/h
52 10-05-2021 06:15:00 15.4 C 10.77 g/m*3 15.4 C 0 km/h
53 10-05-2021 06:20:00 15.3 C 10.71 g/m*3 15.3 C 0 km/h
54 10-05-2021 06:25:00 15.4 C 10.77 g/m*3 15.4 C 6.4 km/h
55 10-05-2021 06:30:00 15.4 C 10.64 g/m*3 15.4 C 3.2 km/h
56 10-05-2021 06:35:00 15.6 C 10.51 g/m*3 15.6 C 3.2 km/h
57 10-05-2021 06:40:00 16 C 10.35 g/m*3 16 C 11.3 km/h
58 10-05-2021 06:45:00 16.7 C 10.52 g/m*3 16.7 C 11.3 km/h
59 10-05-2021 06:50:00 17.3 C 10.46 g/m*3 17.3 C 14.5 km/h
60 10-05-2021 06:55:00 17.8 C 10.47 g/m*3 17.8 C 6.4 km/h
61 10-05-2021 07:00:00 18.2 C 10.57 g/m*3 18.2 C 6.4 km/h
62 10-05-2021 07:05:00 18.3 C 10.79 g/m*3 18.3 C 6.4 km/h
63 10-05-2021 07:10:00 18.4 C 10.85 g/m*3 18.4 C 1.6 km/h
64 10-05-2021 07:15:00 18.5 C 10.6 g/m*3 18.5 C 8.1 km/h
65 10-05-2021 07:20:00 18.7 C 10.73 g/m*3 18.7 C 4.8 km/h
66 10-05-2021 07:25:00 18.8 C 10.79 g/m*3 18.8 C 8.1 km/h
67 10-05-2021 07:30:00 18.9 C 10.69 g/m*3 18.9 C 11.3 km/h
68 10-05-2021 07:35:00 19.1 C 10.82 g/m*3 19.1 C 11.3 km/h
69 10-05-2021 07:40:00 19.2 C 10.72 g/m*3 19.2 C 17.7 km/h
70 10-05-2021 07:45:00 19.2 C 10.88 g/m*3 19.2 C 11.3 km/h
71 10-05-2021 07:50:00 19.2 C 10.88 g/m*3 19.2 C 11.3 km/h
72 10-05-2021 07:55:00 19.1 C 10.98 g/m*3 19.1 C 1.6 km/h
73 10-05-2021 08:00:00 19.1 C 10.98 g/m*3 19.1 C 6.4 km/h
74 10-05-2021 08:05:00 19 C 10.92 g/m*3 19 C 3.2 km/h
75 10-05-2021 08:10:00 19 C 11.08 g/m*3 19 C 12.9 km/h
Sensor: Nr:Datum:Temp:Abs-Feuchte:Windchill:Wind:
Aussen-T/F 76 10-05-2021 08:15:00 19 C 10.92 g/m*3 19 C 9.7 km/h
77 10-05-2021 08:20:00 19 C 11.08 g/m*3 19 C 1.6 km/h
78 10-05-2021 08:25:00 19.1 C 11.15 g/m*3 19.1 C 4.8 km/h
79 10-05-2021 08:30:00 19.1 C 11.31 g/m*3 19.1 C 6.4 km/h
80 10-05-2021 08:35:00 19.1 C 11.47 g/m*3 19.1 C 4.8 km/h
81 10-05-2021 08:40:00 19.1 C 11.15 g/m*3 19.1 C 6.4 km/h
82 10-05-2021 08:45:00 18.9 C 11.02 g/m*3 18.9 C 9.7 km/h
83 10-05-2021 08:50:00 18.8 C 11.11 g/m*3 18.8 C 8.1 km/h
84 10-05-2021 08:55:00 18.8 C 10.95 g/m*3 18.8 C 9.7 km/h
85 10-05-2021 09:00:00 18.8 C 11.27 g/m*3 18.8 C 3.2 km/h
86 10-05-2021 09:05:00 18.9 C 11.02 g/m*3 18.9 C 14.5 km/h
87 10-05-2021 09:10:00 19.1 C 10.98 g/m*3 19.1 C 12.9 km/h
88 10-05-2021 09:15:00 19.3 C 10.95 g/m*3 19.3 C 12.9 km/h
89 10-05-2021 09:20:00 19.4 C 11.01 g/m*3 19.4 C 8.1 km/h
90 10-05-2021 09:25:00 19.6 C 10.97 g/m*3 19.6 C 11.3 km/h
91 10-05-2021 09:30:00 19.9 C 10.82 g/m*3 19.9 C 14.5 km/h
92 10-05-2021 09:35:00 20.2 C 10.84 g/m*3 20.2 C 20.9 km/h
93 10-05-2021 09:40:00 20.3 C 10.73 g/m*3 20.3 C 14.5 km/h
94 10-05-2021 09:45:00 20.3 C 10.55 g/m*3 20.3 C 16.1 km/h
95 10-05-2021 09:50:00 20.4 C 10.61 g/m*3 20.4 C 16.1 km/h
96 10-05-2021 09:55:00 20.7 C 10.98 g/m*3 20.7 C 12.9 km/h
97 10-05-2021 10:00:00 20.7 C 10.8 g/m*3 20.7 C 14.5 km/h
98 10-05-2021 10:05:00 20.8 C 10.86 g/m*3 20.8 C 12.9 km/h

Legende:
   Min
   Max


Maximal/Minimal-Werte vom 10.05.2021 - 10.05.2021

Sensor Min Max Avg
Temp
(Aussen-T/F)
15.2 °C
10-05-2021  05:30:00
20.8 °C
10-05-2021  10:05:00
17.49 °C
Abs-Feuchte
(Aussen-T/F)
10.19 g/m*3
10-05-2021  05:20:00
11.47 g/m*3
10-05-2021  08:35:00
10.63 g/m*3
Windchill
(Aussen-T/F)
15.2 C
10-05-2021  05:30:00
20.8 C
10-05-2021  10:05:00
17.31 C

Die Daten stammen von einer Davis Vantage Pro 2 Wetter-Station und werden unter Linux mit der Software wview2wettercgi und aufbereitet. Alle Angaben erfolgen ohne Gewähr für ihre Vollständigkeit oder Richtigkeit.
Kontakt: Rainer Krienke krienke@uni-koblenz.de . Meine Webseiten an der Uni Koblenz oder privat.
Version: $Revision: 0.78 $